Time;durP1;ratioP1;P1;durP2;ratioP2;P2;SDS_P1;SDS_P2;PMS_P1;PMS_P2;Temp;Humidity;BMP_temperature;BMP_pressure;BME280_temperature;BME280_humidity;BME280_pressure;Samples;Min_cycle;Max_cycle;Signal;HPM_P1;HPM_P2
2022/08/14 00:00:33;;;;;;;2.00;1.90;;;18.00;95.10;;;;;;493980;241;28910;-67
2022/08/14 00:02:34;;;;;;;2.40;2.20;;;18.00;95.10;;;;;;494037;241;28827;-69
2022/08/14 00:04:36;;;;;;;2.50;2.30;;;18.20;94.60;;;;;;494027;241;28860;-68
2022/08/14 00:06:37;;;;;;;2.60;2.40;;;18.40;93.50;;;;;;493966;241;28815;-68
2022/08/14 00:08:38;;;;;;;2.57;2.47;;;18.80;92.90;;;;;;494019;241;28839;-71
2022/08/14 00:10:39;;;;;;;3.80;2.30;;;18.90;92.80;;;;;;494039;241;28888;-68
2022/08/14 00:12:41;;;;;;;2.50;2.30;;;18.90;92.70;;;;;;494033;239;28852;-70
2022/08/14 00:14:42;;;;;;;2.50;2.40;;;19.00;93.00;;;;;;493991;241;28850;-68
2022/08/14 00:16:43;;;;;;;2.40;2.30;;;18.90;93.20;;;;;;493914;241;28851;-69
2022/08/14 00:18:45;;;;;;;2.20;2.10;;;19.00;93.20;;;;;;494013;241;28912;-71
2022/08/14 00:20:47;;;;;;;2.27;2.17;;;18.40;94.60;;;;;;494032;241;28847;-70
2022/08/14 00:22:48;;;;;;;2.20;2.00;;;18.00;95.50;;;;;;493999;241;28805;-68
2022/08/14 00:24:49;;;;;;;2.40;2.30;;;17.90;95.20;;;;;;494006;241;29378;-68
2022/08/14 00:26:50;;;;;;;2.43;2.30;;;18.00;95.50;;;;;;493984;241;29320;-71
2022/08/14 00:28:52;;;;;;;2.60;2.40;;;18.20;95.20;;;;;;494022;241;29845;-69
2022/08/14 00:30:53;;;;;;;3.50;2.70;;;18.50;94.70;;;;;;494009;241;29306;-70
2022/08/14 00:32:54;;;;;;;4.60;3.07;;;18.70;94.40;;;;;;494024;241;28809;-68
2022/08/14 00:35:00;;;;;;;2.90;2.60;;;18.90;94.30;;;;;;493984;241;28867;-68
2022/08/14 00:36:57;;;;;;;2.90;2.70;;;18.90;94.40;;;;;;493548;241;28959;-68
2022/08/14 00:38:58;;;;;;;3.00;2.80;;;18.90;94.40;;;;;;494080;241;28788;-68
2022/08/14 00:40:59;;;;;;;3.10;2.90;;;19.00;94.30;;;;;;494047;237;28855;-70
2022/08/14 00:43:00;;;;;;;4.07;3.73;;;18.90;94.40;;;;;;494046;241;28811;-68
2022/08/14 00:45:02;;;;;;;4.10;3.50;;;19.00;94.60;;;;;;494032;241;29261;-68
2022/08/14 00:47:07;;;;;;;3.23;3.03;;;18.90;94.70;;;;;;493752;241;28870;-72
2022/08/14 00:49:04;;;;;;;3.30;3.10;;;19.00;94.90;;;;;;493714;241;29346;-68
2022/08/14 00:51:05;;;;;;;3.63;3.37;;;19.00;95.10;;;;;;494013;241;29466;-69
2022/08/14 00:53:07;;;;;;;3.70;3.40;;;19.10;95.40;;;;;;494042;241;29382;-68
2022/08/14 00:55:08;;;;;;;3.30;3.07;;;19.00;95.60;;;;;;493991;241;29385;-68
2022/08/14 00:57:09;;;;;;;4.00;3.70;;;19.00;95.80;;;;;;494004;241;28844;-71
2022/08/14 00:59:10;;;;;;;2.93;2.73;;;18.90;96.20;;;;;;494062;241;28913;-68
2022/08/14 01:01:13;;;;;;;3.00;2.80;;;19.00;96.20;;;;;;494053;241;29192;-70
2022/08/14 01:03:13;;;;;;;2.90;2.70;;;19.00;96.30;;;;;;493953;241;28900;-68
2022/08/14 01:05:22;;;;;;;2.97;2.77;;;18.90;96.40;;;;;;494010;241;28806;-68
2022/08/14 01:07:19;;;;;;;3.00;2.60;;;19.00;96.40;;;;;;493301;241;28848;-71
2022/08/14 01:09:17;;;;;;;3.67;3.00;;;19.00;96.30;;;;;;493764;241;28798;-69
2022/08/14 01:11:18;;;;;;;3.20;2.90;;;19.00;96.50;;;;;;494054;241;28840;-69
2022/08/14 01:13:19;;;;;;;3.10;2.90;;;19.10;96.50;;;;;;494039;241;28789;-68
2022/08/14 01:15:20;;;;;;;3.80;3.50;;;19.20;96.50;;;;;;494065;241;29336;-68
2022/08/14 01:17:22;;;;;;;3.83;3.53;;;19.20;96.50;;;;;;493884;241;29785;-71
2022/08/14 01:21:44;;;;;;;3.67;3.37;;;19.20;96.70;;;;;;494032;241;29331;-68
2022/08/14 01:23:44;;;;;;;3.73;3.43;;;19.10;96.80;;;;;;493946;241;28889;-68
2022/08/14 01:25:45;;;;;;;4.30;3.47;;;19.20;97.00;;;;;;494070;241;28857;-69
2022/08/14 01:27:46;;;;;;;4.90;3.73;;;19.20;97.20;;;;;;493945;241;28833;-69
2022/08/14 01:29:48;;;;;;;4.43;4.03;;;19.10;97.30;;;;;;494032;241;28793;-68
2022/08/14 01:31:49;;;;;;;4.00;3.60;;;19.10;97.40;;;;;;494019;241;28819;-69
2022/08/14 01:33:50;;;;;;;4.67;4.27;;;19.10;97.50;;;;;;494090;241;28845;-68
2022/08/14 01:35:55;;;;;;;4.20;3.80;;;19.10;97.60;;;;;;493969;241;28822;-68
2022/08/14 01:37:52;;;;;;;6.67;4.13;;;19.10;97.80;;;;;;493685;241;28839;-69
2022/08/14 01:39:54;;;;;;;4.20;3.90;;;19.10;97.80;;;;;;494037;241;28800;-69
2022/08/14 01:41:59;;;;;;;4.57;4.27;;;19.00;97.90;;;;;;494046;241;29384;-69
2022/08/14 01:44:03;;;;;;;5.30;4.20;;;18.90;98.10;;;;;;493911;241;28840;-68
2022/08/14 01:46:00;;;;;;;3.50;3.30;;;18.90;98.10;;;;;;493743;241;29307;-69
2022/08/14 01:48:01;;;;;;;4.50;3.50;;;18.90;98.30;;;;;;493989;241;29285;-68
2022/08/14 01:50:05;;;;;;;4.10;3.80;;;18.90;98.30;;;;;;494025;241;29421;-71
2022/08/14 01:52:04;;;;;;;5.67;4.23;;;18.90;98.40;;;;;;493855;241;29337;-68
2022/08/14 01:54:05;;;;;;;3.93;3.63;;;19.00;98.40;;;;;;494049;241;29418;-69
2022/08/14 01:56:06;;;;;;;4.23;3.93;;;19.00;98.50;;;;;;493983;241;28844;-70
2022/08/14 01:58:14;;;;;;;4.67;4.20;;;19.00;98.50;;;;;;494060;241;28849;-69
2022/08/14 02:00:17;;;;;;;3.60;3.30;;;19.00;98.60;;;;;;493925;241;28828;-70
2022/08/14 02:02:16;;;;;;;3.63;3.33;;;18.90;98.70;;;;;;493843;241;28899;-68
2022/08/14 02:04:19;;;;;;;3.20;3.00;;;18.90;98.90;;;;;;494023;241;28921;-68
2022/08/14 02:06:20;;;;;;;3.30;3.10;;;18.80;99.00;;;;;;493873;241;30053;-71
2022/08/14 02:08:20;;;;;;;3.47;3.17;;;18.70;99.20;;;;;;493932;241;29360;-68
2022/08/14 02:10:21;;;;;;;6.80;3.20;;;18.70;99.40;;;;;;494028;241;29307;-68
2022/08/14 02:12:23;;;;;;;3.40;3.10;;;18.70;99.50;;;;;;494032;241;29435;-68
2022/08/14 02:14:24;;;;;;;3.23;3.03;;;18.70;99.30;;;;;;494001;241;28832;-68
2022/08/14 02:16:25;;;;;;;3.10;2.90;;;18.70;99.50;;;;;;493979;241;28935;-68
2022/08/14 02:18:27;;;;;;;3.17;2.97;;;18.70;99.50;;;;;;494038;241;28885;-68
2022/08/14 02:20:27;;;;;;;4.23;3.50;;;18.70;99.60;;;;;;494014;241;28923;-70
2022/08/14 02:22:29;;;;;;;3.60;3.30;;;18.70;99.70;;;;;;494029;241;28910;-67
2022/08/14 02:24:30;;;;;;;3.47;3.27;;;18.70;99.70;;;;;;494042;241;28948;-69
2022/08/14 02:26:31;;;;;;;3.00;2.80;;;18.70;99.80;;;;;;493921;241;29187;-72
2022/08/14 02:28:32;;;;;;;3.40;3.10;;;18.70;99.80;;;;;;494049;241;28960;-68
2022/08/14 02:30:34;;;;;;;3.53;3.30;;;18.70;99.80;;;;;;494043;241;29403;-70
2022/08/14 02:32:36;;;;;;;3.70;3.20;;;18.60;99.90;;;;;;494048;241;29373;-68
2022/08/14 02:34:37;;;;;;;3.40;3.10;;;18.60;99.90;;;;;;493889;241;29366;-68
2022/08/14 02:36:38;;;;;;;3.07;2.87;;;18.50;99.90;;;;;;493852;241;29345;-67
2022/08/14 02:38:39;;;;;;;3.50;2.97;;;18.50;99.90;;;;;;494042;241;28886;-69
2022/08/14 02:40:40;;;;;;;3.83;2.97;;;18.40;99.90;;;;;;493923;241;28822;-70
2022/08/14 02:42:41;;;;;;;3.70;3.40;;;18.40;99.90;;;;;;494046;241;28882;-68
2022/08/14 02:44:42;;;;;;;3.00;2.80;;;18.30;99.90;;;;;;494038;241;28881;-69
2022/08/14 02:46:44;;;;;;;3.87;3.10;;;18.30;99.90;;;;;;493960;241;28833;-68
2022/08/14 02:48:45;;;;;;;3.00;2.80;;;18.20;99.90;;;;;;494034;241;28890;-68
2022/08/14 02:50:47;;;;;;;3.40;3.20;;;18.10;99.90;;;;;;494032;241;28852;-70
2022/08/14 02:52:47;;;;;;;3.70;2.80;;;18.10;99.90;;;;;;494028;241;28789;-68
2022/08/14 02:54:49;;;;;;;3.33;3.13;;;18.00;99.90;;;;;;494038;241;28924;-69
2022/08/14 02:56:50;;;;;;;2.90;2.70;;;17.90;99.90;;;;;;493971;241;29968;-68
2022/08/14 02:58:51;;;;;;;3.10;2.90;;;17.80;99.90;;;;;;494039;241;29246;-69
2022/08/14 03:00:54;;;;;;;2.93;2.73;;;17.80;99.90;;;;;;494042;241;29333;-71
2022/08/14 03:02:54;;;;;;;3.03;2.83;;;17.70;99.90;;;;;;493927;241;28812;-69
2022/08/14 03:04:55;;;;;;;3.10;2.80;;;17.70;99.90;;;;;;494031;241;28945;-69
2022/08/14 03:06:56;;;;;;;2.80;2.60;;;17.70;99.90;;;;;;493989;241;28931;-68
2022/08/14 03:08:58;;;;;;;3.57;3.30;;;17.70;99.90;;;;;;494072;241;28823;-67
2022/08/14 03:10:59;;;;;;;3.20;3.00;;;17.70;99.90;;;;;;494025;241;28838;-69
2022/08/14 03:13:03;;;;;;;3.10;2.90;;;17.80;99.90;;;;;;494006;241;28804;-68
2022/08/14 03:15:09;;;;;;;2.90;2.70;;;17.80;99.90;;;;;;493799;241;28866;-69
2022/08/14 03:17:02;;;;;;;3.50;3.30;;;17.70;99.90;;;;;;493346;241;28864;-68
2022/08/14 03:19:05;;;;;;;3.00;2.80;;;17.70;99.90;;;;;;494038;241;28816;-67
2022/08/14 03:21:06;;;;;;;2.73;2.53;;;17.70;99.90;;;;;;493926;241;29320;-71
2022/08/14 03:23:06;;;;;;;3.47;3.17;;;17.70;99.90;;;;;;493988;241;29253;-68
2022/08/14 03:25:07;;;;;;;3.30;3.07;;;17.70;99.90;;;;;;494005;241;29330;-68
2022/08/14 03:27:12;;;;;;;3.37;3.07;;;17.60;99.90;;;;;;493958;241;29271;-68
2022/08/14 03:29:11;;;;;;;3.07;2.87;;;17.50;99.90;;;;;;493745;241;28792;-68
2022/08/14 03:31:11;;;;;;;3.50;3.10;;;17.50;99.90;;;;;;493992;241;28932;-73
2022/08/14 03:33:13;;;;;;;3.17;2.97;;;17.50;99.90;;;;;;493994;237;28841;-68
2022/08/14 03:35:14;;;;;;;3.00;2.80;;;17.40;99.90;;;;;;494008;241;28858;-69
2022/08/14 03:37:15;;;;;;;3.00;2.80;;;17.20;99.90;;;;;;493737;241;28825;-68
2022/08/14 03:39:16;;;;;;;3.20;3.00;;;17.10;99.90;;;;;;494012;241;28842;-71
2022/08/14 03:41:18;;;;;;;3.00;2.80;;;16.90;99.90;;;;;;494008;241;28954;-70
2022/08/14 03:43:19;;;;;;;2.67;2.57;;;16.90;99.90;;;;;;493976;241;28792;-68
2022/08/14 03:45:20;;;;;;;3.10;2.90;;;16.90;99.90;;;;;;493913;241;29325;-69
2022/08/14 03:47:22;;;;;;;2.70;2.50;;;17.00;99.90;;;;;;493894;241;29344;-68
2022/08/14 03:49:23;;;;;;;3.17;2.97;;;17.00;99.90;;;;;;494041;241;29325;-69
2022/08/14 03:51:30;;;;;;;3.00;2.80;;;16.80;99.90;;;;;;494031;241;29424;-71
2022/08/14 03:53:31;;;;;;;3.13;2.93;;;16.70;99.90;;;;;;494048;241;28796;-67
2022/08/14 03:55:32;;;;;;;2.90;2.70;;;16.60;99.90;;;;;;494025;241;28898;-69
2022/08/14 03:57:34;;;;;;;3.17;2.97;;;16.60;99.90;;;;;;493948;241;28821;-68
2022/08/14 03:59:35;;;;;;;3.07;2.87;;;16.60;99.90;;;;;;493979;241;28895;-68
2022/08/14 04:01:38;;;;;;;3.00;2.80;;;16.50;99.90;;;;;;494029;241;28923;-70
2022/08/14 04:03:37;;;;;;;3.30;3.03;;;16.50;99.90;;;;;;493827;241;28805;-68
2022/08/14 04:05:41;;;;;;;3.03;2.83;;;16.50;99.90;;;;;;494002;241;28839;-70
2022/08/14 04:07:40;;;;;;;3.00;2.80;;;16.50;99.90;;;;;;493802;241;29792;-68
2022/08/14 04:09:41;;;;;;;3.03;2.73;;;16.40;99.90;;;;;;493961;241;29255;-68
2022/08/14 04:11:44;;;;;;;3.07;2.77;;;16.40;99.90;;;;;;493998;241;29358;-70
2022/08/14 04:13:44;;;;;;;2.97;2.77;;;16.40;99.90;;;;;;493948;241;29340;-68
2022/08/14 04:15:45;;;;;;;3.10;2.90;;;16.40;99.90;;;;;;493989;241;28913;-69
2022/08/14 04:17:46;;;;;;;3.80;3.50;;;16.40;99.90;;;;;;493924;241;28828;-68
2022/08/14 04:19:47;;;;;;;2.90;2.70;;;16.30;99.90;;;;;;494026;241;28802;-68
2022/08/14 04:21:49;;;;;;;3.90;3.60;;;16.40;99.90;;;;;;494020;241;28941;-71
2022/08/14 04:23:50;;;;;;;3.13;2.93;;;16.40;99.90;;;;;;494029;241;28886;-68
2022/08/14 04:25:54;;;;;;;3.20;3.00;;;16.30;99.90;;;;;;494016;241;28835;-69
2022/08/14 04:27:55;;;;;;;3.50;3.20;;;16.30;99.90;;;;;;493955;241;28867;-69
2022/08/14 04:29:56;;;;;;;3.67;3.37;;;16.30;99.90;;;;;;494007;241;28800;-68
2022/08/14 04:31:58;;;;;;;3.30;3.00;;;16.40;99.90;;;;;;493944;241;28805;-68
2022/08/14 04:34:00;;;;;;;3.60;3.30;;;16.40;99.90;;;;;;494006;241;29307;-72
2022/08/14 04:36:00;;;;;;;3.60;3.30;;;16.30;99.90;;;;;;493832;241;29329;-67
2022/08/14 04:45:00;;;;;;;3.80;3.50;;;16.20;99.90;;;;;;493997;241;28819;-69
2022/08/14 04:49:21;;;;;;;3.47;3.23;;;16.00;99.90;;;;;;494048;241;28805;-69
2022/08/14 04:51:26;;;;;;;3.93;3.63;;;16.00;99.90;;;;;;494046;241;28841;-70
2022/08/14 04:53:23;;;;;;;3.60;3.30;;;16.10;99.90;;;;;;493607;241;28849;-68
2022/08/14 04:55:24;;;;;;;2.87;2.70;;;16.10;99.90;;;;;;493896;241;28982;-68
2022/08/14 04:57:25;;;;;;;3.40;3.20;;;16.10;99.90;;;;;;493814;241;28844;-71
2022/08/14 04:59:26;;;;;;;3.17;2.97;;;16.10;99.90;;;;;;493786;241;28887;-68
2022/08/14 05:01:28;;;;;;;3.30;3.00;;;16.10;99.90;;;;;;493825;241;29441;-68
2022/08/14 05:03:30;;;;;;;3.20;2.90;;;16.10;99.90;;;;;;493975;241;29347;-67
2022/08/14 05:05:31;;;;;;;3.33;3.13;;;16.20;99.90;;;;;;493963;241;29361;-68
2022/08/14 05:07:32;;;;;;;3.50;3.20;;;16.20;99.90;;;;;;493902;241;28911;-73
2022/08/14 05:09:33;;;;;;;3.57;3.30;;;16.20;99.90;;;;;;494011;241;28924;-68
2022/08/14 05:11:34;;;;;;;3.73;3.43;;;16.30;99.90;;;;;;494004;241;28857;-68
2022/08/14 05:13:39;;;;;;;3.10;2.90;;;16.40;99.90;;;;;;493986;241;28790;-68
2022/08/14 05:15:37;;;;;;;3.40;3.20;;;16.40;99.90;;;;;;493748;241;28850;-68
2022/08/14 05:17:38;;;;;;;3.60;3.30;;;16.40;99.90;;;;;;493976;241;28888;-70
2022/08/14 05:19:39;;;;;;;3.60;3.40;;;16.40;99.90;;;;;;494020;241;28910;-68
2022/08/14 05:21:40;;;;;;;3.60;3.33;;;16.40;99.90;;;;;;494019;241;28918;-69
2022/08/14 05:23:42;;;;;;;3.80;3.50;;;16.40;99.90;;;;;;494010;241;28783;-67
2022/08/14 05:25:43;;;;;;;3.40;3.20;;;16.40;99.90;;;;;;494024;241;29323;-68
2022/08/14 05:27:44;;;;;;;3.77;3.47;;;16.40;99.90;;;;;;493960;241;29294;-71
2022/08/14 05:29:46;;;;;;;3.90;3.60;;;16.50;99.90;;;;;;494031;241;29257;-68
2022/08/14 05:31:47;;;;;;;3.80;3.50;;;16.50;99.90;;;;;;494013;241;29422;-69
2022/08/14 05:33:52;;;;;;;3.60;3.30;;;16.60;99.90;;;;;;493930;241;28829;-68
2022/08/14 05:35:49;;;;;;;3.90;3.60;;;16.60;99.90;;;;;;493258;241;28867;-69
2022/08/14 05:37:50;;;;;;;3.57;3.33;;;16.60;99.90;;;;;;493978;241;28836;-70
2022/08/14 05:39:52;;;;;;;3.50;3.30;;;16.70;99.90;;;;;;494033;241;28888;-68
2022/08/14 05:41:53;;;;;;;3.80;3.50;;;16.70;99.90;;;;;;494025;241;28935;-69
2022/08/14 05:43:54;;;;;;;3.70;3.40;;;16.80;99.90;;;;;;494038;238;28809;-69
2022/08/14 05:45:56;;;;;;;3.80;3.50;;;16.80;99.90;;;;;;494025;241;28855;-68
2022/08/14 05:47:57;;;;;;;3.60;3.40;;;16.80;99.90;;;;;;493980;241;28826;-70
2022/08/14 05:49:58;;;;;;;3.70;3.40;;;16.80;99.90;;;;;;494029;241;29266;-68
2022/08/14 05:51:59;;;;;;;3.57;3.37;;;16.70;99.90;;;;;;494007;241;29336;-69
2022/08/14 05:54:00;;;;;;;3.47;3.23;;;16.80;99.90;;;;;;494034;241;29265;-68
2022/08/14 05:56:02;;;;;;;3.40;3.20;;;16.80;99.90;;;;;;494019;241;29355;-69
2022/08/14 05:58:03;;;;;;;3.50;3.30;;;16.90;99.90;;;;;;494041;241;28947;-71
2022/08/14 06:00:04;;;;;;;3.77;3.47;;;17.00;99.90;;;;;;494059;241;28916;-68
2022/08/14 06:02:05;;;;;;;7.03;3.17;;;17.10;99.90;;;;;;494031;241;28840;-70
2022/08/14 06:04:07;;;;;;;4.03;3.73;;;17.10;99.90;;;;;;494021;241;28866;-68
2022/08/14 06:06:08;;;;;;;4.80;4.40;;;17.50;99.90;;;;;;493938;241;28836;-69
2022/08/14 06:08:09;;;;;;;4.00;3.70;;;17.50;99.90;;;;;;494061;241;28965;-68
2022/08/14 06:10:10;;;;;;;4.20;3.90;;;18.00;99.90;;;;;;494076;241;28913;-68
2022/08/14 06:12:12;;;;;;;4.43;3.90;;;18.00;99.90;;;;;;494045;241;28855;-69
2022/08/14 06:14:13;;;;;;;3.80;3.50;;;18.20;99.90;;;;;;493892;241;28837;-68
2022/08/14 06:16:14;;;;;;;3.63;3.37;;;18.10;99.90;;;;;;493905;241;29294;-69
2022/08/14 06:18:16;;;;;;;3.87;3.57;;;18.10;99.90;;;;;;494041;241;29502;-71
2022/08/14 06:20:17;;;;;;;3.90;3.60;;;18.30;99.90;;;;;;494065;241;29280;-68
2022/08/14 06:22:18;;;;;;;4.07;3.67;;;18.50;99.90;;;;;;494030;241;28841;-69
2022/08/14 06:24:19;;;;;;;4.17;3.67;;;18.60;99.90;;;;;;494033;241;28789;-68
2022/08/14 06:26:20;;;;;;;4.30;4.00;;;19.10;99.90;;;;;;493959;241;28915;-68
2022/08/14 06:28:22;;;;;;;4.40;4.00;;;19.30;99.90;;;;;;494030;241;28856;-71
2022/08/14 06:30:23;;;;;;;4.00;3.70;;;19.50;99.90;;;;;;494024;241;28866;-69
2022/08/14 06:32:24;;;;;;;4.80;4.40;;;19.70;99.90;;;;;;494036;241;28934;-69
2022/08/14 06:34:25;;;;;;;4.33;3.93;;;19.90;99.90;;;;;;494011;241;28833;-69
2022/08/14 06:36:27;;;;;;;4.20;3.90;;;20.00;99.90;;;;;;493780;241;28935;-69
2022/08/14 06:38:28;;;;;;;4.03;3.73;;;20.20;99.90;;;;;;494056;241;28859;-73
2022/08/14 06:40:29;;;;;;;4.93;4.43;;;20.20;99.90;;;;;;494020;241;29372;-68
2022/08/14 06:42:30;;;;;;;4.00;3.70;;;20.30;99.90;;;;;;494041;241;29423;-70
2022/08/14 06:44:32;;;;;;;4.73;3.93;;;20.30;99.90;;;;;;494011;241;29377;-68
2022/08/14 06:46:33;;;;;;;3.97;3.67;;;20.30;99.90;;;;;;493980;241;29346;-69
2022/08/14 06:48:34;;;;;;;4.23;3.83;;;20.40;99.90;;;;;;494056;241;28836;-73
2022/08/14 06:50:35;;;;;;;5.67;4.10;;;20.60;99.90;;;;;;494044;241;28809;-71
2022/08/14 06:52:37;;;;;;;4.17;3.77;;;20.70;99.90;;;;;;493976;241;28845;-70
2022/08/14 06:54:39;;;;;;;3.87;3.40;;;20.70;99.90;;;;;;494035;241;28827;-68
2022/08/14 06:56:39;;;;;;;3.97;3.67;;;20.80;99.90;;;;;;493920;241;28854;-69
2022/08/14 06:58:41;;;;;;;5.90;3.67;;;20.90;99.90;;;;;;494034;241;28957;-72
2022/08/14 07:07:23;;;;;;;3.90;3.60;;;21.00;99.90;;;;;;493956;241;29502;-69
2022/08/14 07:09:24;;;;;;;4.30;3.50;;;20.90;99.90;;;;;;494019;241;29323;-69
2022/08/14 07:11:25;;;;;;;4.63;3.53;;;21.00;99.90;;;;;;494033;241;28856;-70
2022/08/14 07:13:27;;;;;;;3.77;3.57;;;21.20;99.90;;;;;;494000;241;28816;-69
2022/08/14 07:15:28;;;;;;;3.63;3.33;;;21.50;99.90;;;;;;494035;241;28943;-70
2022/08/14 07:17:29;;;;;;;3.93;3.63;;;21.50;99.90;;;;;;493923;241;28829;-68
2022/08/14 07:19:30;;;;;;;3.87;3.57;;;21.70;99.90;;;;;;494048;241;28956;-69
2022/08/14 07:21:31;;;;;;;4.27;3.83;;;21.70;99.40;;;;;;494049;237;28932;-70
2022/08/14 07:23:33;;;;;;;5.00;3.40;;;21.70;99.60;;;;;;494021;241;28811;-69
2022/08/14 07:25:34;;;;;;;4.60;4.20;;;21.90;98.90;;;;;;494027;241;28849;-69
2022/08/14 07:27:35;;;;;;;3.73;3.43;;;21.90;98.60;;;;;;493968;241;28883;-68
2022/08/14 07:29:36;;;;;;;3.50;3.20;;;21.90;98.90;;;;;;494073;241;29275;-69
2022/08/14 07:31:38;;;;;;;3.57;3.37;;;21.80;98.80;;;;;;494065;241;29288;-71
2022/08/14 07:33:39;;;;;;;4.23;3.83;;;22.00;98.70;;;;;;494035;241;29370;-68
2022/08/14 07:35:40;;;;;;;6.63;4.00;;;22.20;97.90;;;;;;493874;241;28940;-69
2022/08/14 07:37:41;;;;;;;3.80;3.50;;;22.30;97.40;;;;;;493953;241;28921;-69
2022/08/14 07:39:43;;;;;;;4.07;3.67;;;22.30;97.40;;;;;;494046;241;28816;-69
2022/08/14 07:41:44;;;;;;;5.10;3.20;;;22.40;97.00;;;;;;494023;241;28845;-70
2022/08/14 07:43:45;;;;;;;3.87;3.47;;;22.30;97.20;;;;;;494031;241;28793;-69
2022/08/14 07:45:46;;;;;;;3.60;3.30;;;22.40;97.20;;;;;;494004;241;28928;-69
2022/08/14 07:47:48;;;;;;;3.40;3.20;;;22.60;96.60;;;;;;493975;241;29038;-69
2022/08/14 07:49:49;;;;;;;3.57;3.27;;;22.60;96.00;;;;;;494063;241;28782;-70
2022/08/14 07:51:50;;;;;;;3.50;3.27;;;22.70;95.70;;;;;;494038;241;28916;-70
2022/08/14 07:53:51;;;;;;;3.60;3.33;;;22.70;95.90;;;;;;494019;241;29252;-69
2022/08/14 07:55:53;;;;;;;3.37;3.17;;;22.90;95.50;;;;;;494028;241;29404;-69
2022/08/14 07:57:55;;;;;;;3.93;3.63;;;23.20;94.90;;;;;;493950;241;30179;-69
2022/08/14 07:59:55;;;;;;;4.10;3.40;;;23.00;95.00;;;;;;493988;241;28883;-69
2022/08/14 08:01:56;;;;;;;3.30;3.00;;;23.20;94.70;;;;;;494051;241;28913;-71
2022/08/14 08:04:01;;;;;;;3.23;3.03;;;23.10;94.70;;;;;;494012;241;28813;-69
2022/08/14 08:06:02;;;;;;;3.20;3.00;;;23.10;94.80;;;;;;494006;237;30392;-70
2022/08/14 08:08:03;;;;;;;3.00;2.80;;;23.10;94.70;;;;;;493999;241;29184;-69
2022/08/14 08:10:29;;;;;;;3.23;3.03;;;23.00;94.60;;;;;;494032;241;28852;-71
2022/08/14 08:12:06;;;;;;;3.10;2.90;;;23.30;95.00;;;;;;492209;241;28808;-69
2022/08/14 08:14:09;;;;;;;4.83;3.30;;;23.40;94.70;;;;;;494023;241;28868;-70
2022/08/14 08:16:09;;;;;;;3.53;3.33;;;23.60;94.40;;;;;;493820;241;28885;-69
2022/08/14 08:18:10;;;;;;;3.97;3.23;;;23.60;94.30;;;;;;494031;241;28832;-70
2022/08/14 08:20:11;;;;;;;3.87;3.37;;;23.60;93.80;;;;;;494029;241;28948;-69
2022/08/14 08:22:12;;;;;;;3.50;3.23;;;23.70;93.60;;;;;;494031;241;28792;-69
2022/08/14 08:24:14;;;;;;;3.60;3.30;;;23.90;93.10;;;;;;493990;241;28882;-70
2022/08/14 08:26:15;;;;;;;3.50;3.30;;;23.90;93.40;;;;;;493870;241;29862;-69
2022/08/14 08:28:16;;;;;;;5.17;3.20;;;23.90;93.50;;;;;;494005;241;29331;-69
2022/08/14 08:30:17;;;;;;;3.80;3.03;;;23.80;93.50;;;;;;494027;241;29316;-71
2022/08/14 08:32:18;;;;;;;3.83;3.10;;;24.00;93.80;;;;;;494009;241;28780;-69
2022/08/14 08:34:20;;;;;;;3.53;3.33;;;24.10;93.10;;;;;;494018;241;28909;-70
2022/08/14 08:36:21;;;;;;;4.27;3.30;;;24.20;93.10;;;;;;493838;241;28856;-69
2022/08/14 08:38:22;;;;;;;3.33;3.13;;;24.10;92.90;;;;;;494029;241;28899;-69
2022/08/14 08:40:24;;;;;;;3.73;3.43;;;24.20;93.00;;;;;;494026;241;28927;-71
2022/08/14 08:42:25;;;;;;;3.20;3.00;;;24.20;92.20;;;;;;494031;241;28798;-69
2022/08/14 08:44:26;;;;;;;3.33;3.13;;;24.40;92.50;;;;;;494022;241;28837;-70
2022/08/14 08:46:27;;;;;;;3.97;3.50;;;24.30;92.20;;;;;;493964;241;28810;-69
2022/08/14 08:48:28;;;;;;;3.57;3.27;;;24.40;92.20;;;;;;494030;241;28898;-69
2022/08/14 08:50:30;;;;;;;3.17;2.97;;;24.50;92.20;;;;;;494058;241;29396;-71
2022/08/14 08:52:31;;;;;;;3.67;3.37;;;24.40;92.20;;;;;;494041;241;29264;-69
2022/08/14 08:54:32;;;;;;;3.90;3.37;;;24.40;93.00;;;;;;494012;241;29411;-69
2022/08/14 08:56:33;;;;;;;3.80;3.33;;;24.50;91.10;;;;;;493988;241;29687;-69
2022/08/14 08:58:35;;;;;;;3.30;3.10;;;24.60;91.30;;;;;;494058;241;28859;-69
2022/08/14 09:00:36;;;;;;;3.23;3.03;;;24.70;90.20;;;;;;494074;241;28825;-71
2022/08/14 09:02:37;;;;;;;3.63;3.33;;;24.70;90.80;;;;;;494055;241;28793;-69
2022/08/14 09:04:38;;;;;;;3.03;2.83;;;24.90;90.90;;;;;;494015;241;28934;-69
2022/08/14 09:06:40;;;;;;;3.40;3.10;;;24.80;91.00;;;;;;494016;241;28951;-69
2022/08/14 09:08:41;;;;;;;3.73;3.40;;;24.90;91.10;;;;;;494025;241;28922;-69
2022/08/14 09:10:42;;;;;;;3.30;3.10;;;25.00;90.30;;;;;;494057;241;28833;-70
2022/08/14 09:12:43;;;;;;;3.73;3.43;;;25.00;90.80;;;;;;494018;241;28814;-69
2022/08/14 09:14:52;;;;;;;3.10;2.87;;;25.30;89.30;;;;;;494013;241;29326;-69
2022/08/14 09:16:46;;;;;;;3.20;2.90;;;25.20;89.60;;;;;;493427;241;29576;-69
2022/08/14 09:18:47;;;;;;;3.00;2.80;;;25.00;87.60;;;;;;494070;241;29336;-69
2022/08/14 09:20:48;;;;;;;2.90;2.70;;;25.00;86.50;;;;;;494062;241;29365;-71
2022/08/14 09:22:51;;;;;;;3.00;2.80;;;25.10;88.50;;;;;;494046;241;28818;-69
2022/08/14 09:24:51;;;;;;;4.57;2.90;;;25.20;90.20;;;;;;493977;241;28837;-71
2022/08/14 09:26:52;;;;;;;2.97;2.77;;;25.00;90.40;;;;;;494008;241;28831;-70
2022/08/14 09:28:53;;;;;;;2.70;2.50;;;25.00;90.40;;;;;;490177;241;36230;-69
2022/08/14 09:30:55;;;;;;;2.70;2.50;;;25.10;90.20;;;;;;494061;241;28843;-70
2022/08/14 09:32:56;;;;;;;3.00;2.80;;;25.30;89.60;;;;;;494015;241;28820;-69
2022/08/14 09:34:57;;;;;;;3.27;2.97;;;25.30;87.60;;;;;;494006;241;28869;-69
2022/08/14 09:36:58;;;;;;;2.80;2.60;;;25.30;85.50;;;;;;493895;241;28828;-73
2022/08/14 09:39:00;;;;;;;2.83;2.50;;;25.30;84.40;;;;;;494018;241;29265;-69
2022/08/14 09:41:01;;;;;;;2.63;2.43;;;25.70;84.60;;;;;;494047;241;29378;-69
2022/08/14 09:43:02;;;;;;;4.53;2.90;;;25.70;84.20;;;;;;493913;241;29272;-69
2022/08/14 09:45:03;;;;;;;2.57;2.43;;;25.80;82.90;;;;;;494029;241;28849;-70
2022/08/14 09:47:05;;;;;;;6.53;2.80;;;25.90;82.70;;;;;;493997;241;28851;-72
2022/08/14 09:49:06;;;;;;;2.70;2.50;;;25.80;83.00;;;;;;494045;241;28882;-69
2022/08/14 09:51:07;;;;;;;2.73;2.53;;;25.80;82.90;;;;;;493753;241;28839;-70
2022/08/14 09:53:08;;;;;;;2.40;2.30;;;25.80;83.40;;;;;;494068;241;28796;-69
2022/08/14 09:55:10;;;;;;;2.87;2.67;;;25.70;83.40;;;;;;494052;241;28831;-69
2022/08/14 09:57:12;;;;;;;2.73;2.53;;;25.80;83.60;;;;;;493990;241;29191;-72
2022/08/14 09:59:13;;;;;;;2.80;2.60;;;26.00;82.20;;;;;;493973;241;28815;-70
2022/08/14 10:01:13;;;;;;;3.07;2.87;;;26.00;81.40;;;;;;494052;241;29352;-70
2022/08/14 10:03:15;;;;;;;2.80;2.60;;;25.90;82.80;;;;;;494034;241;29349;-70
2022/08/14 10:05:16;;;;;;;3.13;2.93;;;25.90;83.40;;;;;;494066;241;29403;-70
2022/08/14 10:07:17;;;;;;;2.97;2.77;;;26.10;82.90;;;;;;493993;241;29306;-73
2022/08/14 10:09:18;;;;;;;3.50;3.13;;;26.20;80.80;;;;;;494032;241;28960;-69
2022/08/14 10:11:20;;;;;;;3.33;3.03;;;26.40;81.00;;;;;;494044;241;28845;-69
2022/08/14 10:13:21;;;;;;;3.23;3.03;;;26.30;80.60;;;;;;494070;241;28808;-70
2022/08/14 10:15:23;;;;;;;2.53;2.43;;;26.20;81.50;;;;;;494043;241;28836;-70
2022/08/14 10:17:25;;;;;;;2.80;2.60;;;26.20;81.70;;;;;;493947;241;29438;-69
2022/08/14 10:19:26;;;;;;;2.90;2.70;;;26.20;81.90;;;;;;493951;241;28807;-70
2022/08/14 10:21:26;;;;;;;2.93;2.73;;;26.30;81.70;;;;;;493959;241;28841;-70
2022/08/14 10:23:27;;;;;;;2.97;2.63;;;26.40;82.30;;;;;;494050;241;28874;-68
2022/08/14 10:25:28;;;;;;;2.70;2.50;;;26.40;82.10;;;;;;494016;241;28926;-70
2022/08/14 10:27:30;;;;;;;2.60;2.50;;;26.40;82.00;;;;;;493998;241;29388;-74
2022/08/14 10:29:31;;;;;;;2.97;2.77;;;26.60;81.70;;;;;;494048;241;29242;-69
2022/08/14 10:31:33;;;;;;;3.90;3.40;;;26.50;81.50;;;;;;494043;241;29326;-72
2022/08/14 10:33:34;;;;;;;4.30;3.00;;;26.70;81.00;;;;;;494035;241;28853;-69
2022/08/14 10:35:35;;;;;;;4.30;3.67;;;26.80;80.10;;;;;;493959;241;28942;-70
2022/08/14 10:37:37;;;;;;;3.90;3.60;;;26.70;80.10;;;;;;493976;241;28864;-75
2022/08/14 10:39:37;;;;;;;3.33;3.13;;;26.50;81.10;;;;;;494016;241;28899;-70
2022/08/14 10:41:39;;;;;;;4.17;3.63;;;26.60;81.10;;;;;;494039;241;28829;-70
2022/08/14 10:43:40;;;;;;;3.40;3.10;;;26.60;81.40;;;;;;494031;241;28929;-70
2022/08/14 10:45:41;;;;;;;3.33;3.13;;;26.60;80.70;;;;;;494041;241;28899;-69
2022/08/14 10:47:42;;;;;;;2.83;2.63;;;26.60;81.90;;;;;;493995;241;28850;-72
2022/08/14 10:49:48;;;;;;;2.80;2.60;;;26.70;82.10;;;;;;494043;241;28858;-70